createdAt,value
2022-10-19T00:02:45.873Z,3.92
2022-10-19T00:07:49.666Z,4.13
2022-10-19T00:12:52.234Z,3.88
2022-10-19T00:17:54.714Z,3.72
2022-10-19T00:22:57.853Z,3.97
2022-10-19T00:28:01.279Z,4.65
2022-10-19T00:33:04.831Z,4.20
2022-10-19T00:38:07.449Z,4.15
2022-10-19T00:43:18.718Z,3.85
2022-10-19T00:48:30.910Z,4.13
2022-10-19T00:53:33.497Z,3.70
2022-10-19T00:58:36.380Z,4.80
2022-10-19T01:03:40.783Z,4.18
2022-10-19T01:08:43.441Z,3.97
2022-10-19T01:14:04.741Z,3.67
2022-10-19T01:19:29.586Z,4.28
2022-10-19T01:24:40.575Z,3.92
2022-10-19T01:30:11.279Z,3.83
2022-10-19T01:35:19.590Z,3.75
2022-10-19T01:40:33.325Z,4.40
2022-10-19T01:45:52.340Z,4.63
2022-10-19T01:51:00.717Z,4.72
2022-10-19T01:56:05.989Z,3.90
2022-10-19T02:06:14.465Z,4.82
2022-10-19T02:11:17.843Z,4.53
2022-10-19T02:16:35.599Z,4.07
2022-10-19T02:21:38.124Z,3.97
2022-10-19T02:26:41.037Z,3.90
2022-10-19T02:31:44.226Z,3.95
2022-10-19T02:36:46.887Z,3.85
2022-10-19T02:42:00.197Z,3.65
2022-10-19T02:47:08.117Z,4.13
2022-10-19T02:52:13.834Z,3.47
2022-10-19T02:57:17.942Z,3.40
2022-10-19T03:02:21.052Z,3.70
2022-10-19T03:07:23.891Z,3.60
2022-10-19T03:12:29.313Z,3.47
2022-10-19T03:17:32.320Z,3.70
2022-10-19T03:22:36.691Z,3.08
2022-10-19T03:27:39.433Z,3.43
2022-10-19T03:32:47.199Z,3.40
2022-10-19T03:37:50.014Z,3.80
2022-10-19T03:42:52.473Z,4.25
2022-10-19T03:47:55.052Z,3.90
2022-10-19T03:52:57.596Z,3.10
2022-10-19T03:58:00.204Z,3.70
2022-10-19T04:03:05.269Z,3.33
2022-10-19T04:08:07.833Z,3.30
2022-10-19T04:13:10.930Z,3.28
2022-10-19T04:18:14.493Z,3.00
2022-10-19T04:28:24.385Z,2.92
2022-10-19T04:33:29.516Z,3.15
2022-10-19T04:38:32.406Z,3.17
2022-10-19T04:43:37.360Z,3.10
2022-10-19T04:48:40.555Z,2.85
2022-10-19T04:53:44.184Z,3.38
2022-10-19T04:58:47.020Z,3.22
2022-10-19T05:08:59.900Z,2.88
2022-10-19T05:14:02.499Z,2.97
2022-10-19T05:19:05.048Z,3.05
2022-10-19T05:24:07.609Z,2.85
2022-10-19T05:29:12.159Z,2.85
2022-10-19T05:34:14.791Z,2.90
2022-10-19T05:39:18.559Z,3.00
2022-10-19T05:44:23.395Z,2.90
2022-10-19T05:49:26.027Z,2.90
2022-10-19T05:54:28.794Z,2.60
2022-10-19T05:59:32.209Z,2.70
2022-10-19T06:04:34.981Z,2.70
2022-10-19T06:09:37.586Z,2.70
2022-10-19T06:14:40.465Z,3.00
2022-10-19T06:19:44.118Z,2.67
2022-10-19T06:24:48.147Z,2.30
2022-10-19T06:29:52.282Z,2.73
2022-10-19T06:34:56.532Z,2.83
2022-10-19T06:40:02.368Z,3.05
2022-10-19T06:45:11.235Z,3.17
2022-10-19T06:50:13.885Z,3.05
2022-10-19T06:55:17.932Z,3.00
2022-10-19T07:00:20.700Z,3.23
2022-10-19T07:05:23.323Z,3.40
2022-10-19T07:10:44.698Z,2.65
2022-10-19T07:15:47.696Z,3.38
2022-10-19T07:20:58.723Z,3.47
2022-10-19T07:26:08.106Z,4.20
2022-10-19T07:31:13.928Z,3.92
2022-10-19T07:36:16.511Z,4.50
2022-10-19T07:41:21.119Z,5.20
2022-10-19T07:46:25.838Z,5.97
2022-10-19T07:56:33.190Z,6.30
2022-10-19T08:01:43.510Z,8.15
2022-10-19T08:06:46.733Z,12.55
2022-10-19T08:11:49.564Z,15.20
2022-10-19T08:16:52.335Z,18.70
2022-10-19T08:21:55.151Z,19.10
2022-10-19T08:26:57.601Z,24.42
2022-10-19T08:32:00.480Z,24.70
2022-10-19T08:37:10.308Z,29.80
2022-10-19T08:42:47.900Z,31.63
2022-10-19T08:47:57.844Z,32.53
2022-10-19T08:53:17.037Z,33.85
2022-10-19T08:58:44.566Z,26.65
2022-10-19T09:04:18.738Z,34.60
2022-10-19T09:09:21.472Z,36.08
2022-10-19T09:15:07.826Z,37.38
2022-10-19T09:20:19.160Z,36.13
2022-10-19T09:25:23.402Z,34.05
2022-10-19T09:30:28.315Z,31.75
2022-10-19T09:35:36.843Z,29.20
2022-10-19T09:41:07.690Z,26.55
2022-10-19T09:46:20.064Z,22.35
2022-10-19T09:51:23.636Z,28.48
2022-10-19T09:56:27.874Z,14.95
2022-10-19T10:01:43.499Z,10.63
2022-10-19T10:06:48.408Z,7.72
2022-10-19T10:17:02.632Z,4.50
2022-10-19T10:22:05.179Z,3.85
2022-10-19T10:27:28.507Z,2.55
2022-10-19T10:32:31.410Z,2.47
2022-10-19T10:37:41.311Z,2.08
2022-10-19T10:42:46.473Z,2.47
2022-10-19T10:47:49.335Z,2.30
2022-10-19T10:53:06.137Z,2.25
2022-10-19T10:58:36.438Z,2.40
2022-10-19T11:03:46.386Z,2.50
2022-10-19T11:09:16.012Z,2.67
2022-10-19T11:14:47.301Z,2.60
2022-10-19T11:19:51.377Z,2.83
2022-10-19T11:25:15.455Z,2.90
2022-10-19T11:30:23.432Z,2.83
2022-10-19T11:35:42.827Z,2.70
2022-10-19T11:41:22.009Z,2.90
2022-10-19T11:46:35.560Z,2.42
2022-10-19T11:51:57.694Z,3.40
2022-10-19T11:57:20.596Z,2.90
2022-10-19T12:02:47.161Z,3.42
2022-10-19T12:08:04.458Z,2.55
2022-10-19T12:13:12.477Z,2.92
2022-10-19T12:18:43.800Z,2.80
2022-10-19T12:23:47.019Z,2.67
2022-10-19T12:28:59.570Z,2.93
2022-10-19T12:34:08.061Z,2.80
2022-10-19T12:39:21.204Z,3.00
2022-10-19T12:45:00.362Z,3.47
2022-10-19T12:50:03.448Z,3.20
2022-10-19T12:55:16.104Z,3.38
2022-10-19T13:00:21.767Z,3.58
2022-10-19T13:05:26.259Z,3.28
2022-10-19T13:15:37.379Z,3.70
2022-10-19T13:25:43.809Z,2.77
2022-10-19T13:30:47.536Z,2.92
2022-10-19T13:36:08.544Z,3.42
2022-10-19T13:41:24.092Z,3.60
2022-10-19T13:46:29.819Z,3.20
2022-10-19T13:51:49.338Z,2.65
2022-10-19T13:57:13.521Z,3.03
2022-10-19T14:02:31.457Z,3.47
2022-10-19T14:08:26.589Z,3.00
2022-10-19T14:13:29.735Z,3.53
2022-10-19T14:18:35.126Z,3.30
2022-10-19T14:23:42.819Z,3.05
2022-10-19T14:28:47.685Z,3.17
2022-10-19T14:33:56.787Z,2.78
2022-10-19T14:39:00.920Z,2.92
2022-10-19T14:44:35.862Z,3.00
2022-10-19T14:49:38.478Z,2.42
2022-10-19T14:54:44.319Z,2.70
2022-10-19T15:00:10.690Z,2.50
2022-10-19T15:05:24.870Z,2.78
2022-10-19T15:15:34.934Z,3.05
2022-10-19T15:20:49.486Z,3.00
2022-10-19T15:26:33.505Z,2.70
2022-10-19T15:31:36.245Z,3.35
2022-10-19T15:36:38.831Z,2.72
2022-10-19T15:41:41.680Z,2.95
2022-10-19T15:46:48.003Z,3.10
2022-10-19T15:51:51.128Z,3.20
2022-10-19T15:56:54.332Z,3.60
2022-10-19T16:01:57.098Z,3.05
2022-10-19T16:06:59.636Z,3.28
2022-10-19T16:12:02.325Z,3.78
2022-10-19T16:17:05.268Z,3.60
2022-10-19T16:22:08.967Z,3.53
2022-10-19T16:27:15.215Z,3.88
2022-10-19T16:32:17.807Z,4.03
2022-10-19T16:37:20.746Z,3.60
2022-10-19T16:42:25.653Z,3.78
2022-10-19T16:47:30.731Z,5.15
2022-10-19T16:52:33.769Z,4.97
2022-10-19T16:57:37.167Z,5.35
2022-10-19T17:02:42.001Z,6.40
2022-10-19T17:07:47.052Z,5.25
2022-10-19T17:12:49.667Z,7.60
2022-10-19T17:17:52.348Z,6.45
2022-10-19T17:22:55.215Z,6.65
2022-10-19T17:28:00.100Z,6.97
2022-10-19T17:33:03.247Z,7.55
2022-10-19T17:38:06.579Z,8.73
2022-10-19T17:43:10.921Z,7.57
2022-10-19T17:48:13.426Z,8.32
2022-10-19T17:53:15.998Z,8.70
2022-10-19T17:58:18.914Z,8.02
2022-10-19T18:03:22.944Z,8.43
2022-10-19T18:08:26.344Z,7.38
2022-10-19T18:13:29.298Z,7.57
2022-10-19T18:18:34.127Z,6.47
2022-10-19T18:23:39.613Z,7.55
2022-10-19T18:28:42.930Z,7.18
2022-10-19T18:33:54.429Z,6.57
2022-10-19T18:38:59.694Z,6.68
2022-10-19T18:44:05.364Z,7.38
2022-10-19T18:49:10.723Z,6.55
2022-10-19T18:54:13.282Z,7.50
2022-10-19T18:59:16.959Z,6.07
2022-10-19T19:04:19.717Z,8.00
2022-10-19T19:09:22.260Z,6.90
2022-10-19T19:14:26.393Z,6.63
2022-10-19T19:19:30.290Z,7.05
2022-10-19T19:24:32.993Z,6.47
2022-10-19T19:29:37.025Z,7.38
2022-10-19T19:34:39.652Z,7.00
2022-10-19T19:39:42.752Z,6.90
2022-10-19T19:44:45.461Z,6.93
2022-10-19T19:49:49.361Z,6.68
2022-10-19T19:54:52.988Z,5.03
2022-10-19T19:59:56.414Z,7.30
2022-10-19T20:04:59.204Z,7.10
2022-10-19T20:10:02.723Z,7.00
2022-10-19T20:15:06.756Z,8.25
2022-10-19T20:20:11.746Z,6.90
2022-10-19T20:25:14.542Z,6.95
2022-10-19T20:30:17.250Z,5.60
2022-10-19T20:35:20.541Z,7.30
2022-10-19T20:40:23.146Z,7.65
2022-10-19T20:45:25.961Z,6.97
2022-10-19T20:50:28.522Z,8.20
2022-10-19T20:55:31.035Z,7.40
2022-10-19T21:00:33.610Z,6.50
2022-10-19T21:05:38.363Z,7.40
2022-10-19T21:10:40.928Z,7.55
2022-10-19T21:15:43.493Z,8.40
2022-10-19T21:20:47.468Z,8.30
2022-10-19T21:25:54.941Z,7.45
2022-10-19T21:30:57.550Z,6.63
2022-10-19T21:36:07.529Z,8.95
2022-10-19T21:41:20.852Z,7.97
2022-10-19T21:46:27.028Z,7.93
2022-10-19T21:51:35.775Z,7.82
2022-10-19T21:56:38.555Z,8.25
2022-10-19T22:01:41.884Z,8.30
2022-10-19T22:06:44.894Z,7.55
2022-10-19T22:11:47.591Z,8.98
2022-10-19T22:16:50.464Z,8.50
2022-10-19T22:21:53.048Z,7.82
2022-10-19T22:26:56.854Z,8.88
2022-10-19T22:32:00.510Z,8.27
2022-10-19T22:37:03.352Z,7.80
2022-10-19T22:42:59.967Z,9.15
2022-10-19T22:48:03.562Z,8.57
2022-10-19T22:53:06.234Z,8.02
2022-10-19T22:58:09.590Z,9.38
2022-10-19T23:03:12.242Z,9.85
2022-10-19T23:08:14.985Z,8.38
2022-10-19T23:13:17.531Z,9.68
2022-10-19T23:18:20.886Z,9.95
2022-10-19T23:23:24.296Z,9.05
2022-10-19T23:28:27.187Z,10.65
2022-10-19T23:33:29.659Z,9.80
2022-10-19T23:38:32.363Z,8.00
2022-10-19T23:48:37.982Z,8.55
2022-10-19T23:53:42.783Z,6.75
2022-10-19T23:58:45.797Z,9.82
